Time;durP1;ratioP1;P1;durP2;ratioP2;P2;SDS_P1;SDS_P2;PMS_P1;PMS_P2;Temp;Humidity;BMP_temperature;BMP_pressure;BME280_temperature;BME280_humidity;BME280_pressure;Samples;Min_cycle;Max_cycle;Signal;HPM_P1;HPM_P2
2021/03/26 00:02:01;;;;;;;37.78;23.98;;;;;;;11.10;56.36;101900.63;4910051;28;114972;-65
2021/03/26 00:04:28;;;;;;;41.92;23.88;;;;;;;11.07;56.44;101900.69;4906116;28;113359;-65
2021/03/26 00:06:55;;;;;;;36.55;23.20;;;;;;;11.06;56.84;101896.34;4905026;28;123812;-66
2021/03/26 00:09:28;;;;;;;38.63;24.45;;;;;;;11.02;56.80;101900.84;4905018;28;124221;-65
2021/03/26 00:12:00;;;;;;;40.67;23.75;;;;;;;11.00;56.76;101897.38;4909708;28;112317;-65
2021/03/26 00:14:27;;;;;;;38.10;23.85;;;;;;;10.98;56.41;101898.31;4903557;28;114414;-65
2021/03/26 00:16:54;;;;;;;38.42;24.20;;;;;;;10.96;56.41;101890.41;4907226;28;124741;-65
2021/03/26 00:19:21;;;;;;;41.67;25.27;;;;;;;10.93;56.81;101890.53;4903054;28;124048;-66
2021/03/26 00:21:47;;;;;;;35.92;24.17;;;;;;;10.90;56.39;101895.91;4909165;28;115349;-65
2021/03/26 00:24:14;;;;;;;37.22;24.05;;;;;;;10.88;56.77;101888.00;4908436;28;114983;-65
2021/03/26 00:26:41;;;;;;;35.50;23.98;;;;;;;10.86;56.62;101894.25;4906559;28;124018;-66
2021/03/26 00:29:23;;;;;;;40.58;24.60;;;;;;;10.82;56.85;101888.19;4909676;28;122902;-65
2021/03/26 00:31:50;;;;;;;38.75;24.50;;;;;;;10.80;56.79;101883.84;4909259;28;114339;-65
2021/03/26 00:34:18;;;;;;;37.65;24.08;;;;;;;10.79;57.13;101884.75;4906909;28;113863;-65
2021/03/26 00:36:46;;;;;;;39.17;24.55;;;;;;;10.77;57.04;101889.22;4903596;28;124075;-65
2021/03/26 00:39:13;;;;;;;39.80;25.27;;;;;;;10.75;57.05;101880.44;4907892;28;124649;-66
2021/03/26 00:41:40;;;;;;;38.72;25.30;;;;;;;10.73;56.92;101887.59;4905877;28;113370;-65
2021/03/26 00:44:06;;;;;;;38.83;24.75;;;;;;;10.71;57.19;101875.22;4909381;28;113146;-65
2021/03/26 00:46:36;;;;;;;40.53;25.38;;;;;;;10.67;57.45;101873.59;4909172;28;124234;-65
2021/03/26 00:49:04;;;;;;;40.28;24.98;;;;;;;10.66;57.17;101871.88;4908627;28;124340;-65
2021/03/26 00:51:31;;;;;;;38.92;25.00;;;;;;;10.67;57.62;101872.72;4906227;28;113136;-65
2021/03/26 00:53:57;;;;;;;38.90;25.02;;;;;;;10.66;57.61;101866.56;4902309;28;114169;-65
2021/03/26 00:56:24;;;;;;;39.78;25.58;;;;;;;10.65;57.46;101870.13;4904419;28;124441;-65
2021/03/26 00:58:51;;;;;;;39.85;25.52;;;;;;;10.65;57.90;101864.81;4904567;28;124330;-65
2021/03/26 01:01:18;;;;;;;37.53;24.63;;;;;;;10.65;57.93;101870.13;4908953;28;114389;-65
2021/03/26 01:03:46;;;;;;;37.80;24.65;;;;;;;10.66;57.97;101857.72;4906539;28;114199;-65
2021/03/26 01:06:12;;;;;;;37.35;24.67;;;;;;;10.65;57.90;101864.81;4908037;28;124754;-65
2021/03/26 01:08:40;;;;;;;40.08;24.60;;;;;;;10.65;57.95;101859.53;4905918;28;124009;-65
2021/03/26 01:11:18;;;;;;;40.45;26.25;;;;;;;10.64;58.22;101852.50;4891187;28;114212;-66
2021/03/26 01:13:45;;;;;;;40.42;25.25;;;;;;;10.65;58.18;101854.22;4906012;28;115102;-65
2021/03/26 01:16:14;;;;;;;43.20;25.35;;;;;;;10.65;58.31;101848.94;4908810;28;124141;-66
2021/03/26 01:18:43;;;;;;;40.88;25.08;;;;;;;10.65;58.18;101842.78;4907064;28;122954;-66
2021/03/26 01:21:16;;;;;;;38.55;24.05;;;;;;;10.64;58.18;101841.91;4905847;28;113895;-65
2021/03/26 01:23:45;;;;;;;42.53;25.65;;;;;;;10.66;58.08;101847.13;4908410;28;113338;-65
2021/03/26 01:26:12;;;;;;;40.90;25.48;;;;;;;10.67;57.98;101841.78;4904982;28;123554;-65
2021/03/26 01:28:39;;;;;;;35.30;24.23;;;;;;;10.66;58.29;101840.06;4912324;28;123944;-65
2021/03/26 01:31:29;;;;;;;41.00;25.65;;;;;;;10.66;57.93;101834.78;4913211;28;113641;-65
2021/03/26 01:34:03;;;;;;;42.90;24.83;;;;;;;10.66;58.17;101833.88;4903680;28;113359;-65
2021/03/26 01:36:35;;;;;;;37.10;24.33;;;;;;;10.65;58.12;101830.38;4911011;28;124469;-65
2021/03/26 01:39:06;;;;;;;39.92;24.95;;;;;;;10.66;58.40;101824.19;4908757;28;124150;-66
2021/03/26 01:41:40;;;;;;;39.75;24.70;;;;;;;10.64;57.98;101828.66;4895254;28;112713;-65
2021/03/26 01:44:17;;;;;;;42.33;25.23;;;;;;;10.65;58.59;101822.44;4897655;28;113536;-65
2021/03/26 01:46:45;;;;;;;41.85;25.48;;;;;;;10.64;58.26;101819.81;4911572;28;124043;-65
2021/03/26 01:49:13;;;;;;;40.88;25.98;;;;;;;10.64;58.06;101826.00;4896008;28;123461;-65
2021/03/26 01:51:49;;;;;;;38.67;25.25;;;;;;;10.64;58.20;101820.72;4908030;28;114592;-65
2021/03/26 01:54:18;;;;;;;38.83;24.85;;;;;;;10.63;58.20;101818.97;4908547;28;116484;-65
2021/03/26 01:56:46;;;;;;;42.30;26.38;;;;;;;10.63;58.25;101815.47;4908839;28;123281;-65
2021/03/26 01:59:24;;;;;;;40.28;26.25;;;;;;;10.63;58.29;101808.38;4907943;28;123675;-65
2021/03/26 02:02:08;;;;;;;39.90;26.30;;;;;;;10.60;58.38;101803.16;4893373;28;114161;-65
2021/03/26 02:04:55;;;;;;;38.28;25.38;;;;;;;10.62;58.20;101806.63;4910764;28;115181;-65
2021/03/26 02:07:43;;;;;;;39.13;25.33;;;;;;;10.60;58.10;101802.28;4908875;28;123095;-65
2021/03/26 02:10:18;;;;;;;38.65;25.58;;;;;;;10.57;58.30;101803.25;4910514;28;123250;-65
2021/03/26 02:12:45;;;;;;;43.63;26.48;;;;;;;10.56;58.28;101801.50;4913597;28;114504;-65
2021/03/26 02:15:15;;;;;;;43.20;25.98;;;;;;;10.56;58.23;101798.00;4910961;28;114733;-65
2021/03/26 02:17:42;;;;;;;42.70;26.58;;;;;;;10.56;58.36;101796.22;4912918;28;123165;-65
2021/03/26 02:20:24;;;;;;;43.63;26.40;;;;;;;10.53;58.58;101791.03;4913388;28;122654;-65
2021/03/26 02:22:56;;;;;;;44.35;27.30;;;;;;;10.53;58.37;101796.31;4910024;28;113362;-65
2021/03/26 02:25:25;;;;;;;43.80;26.70;;;;;;;10.53;58.63;101783.06;4911078;28;113024;-65
2021/03/26 02:27:53;;;;;;;39.20;26.52;;;;;;;10.52;58.16;101778.69;4911201;28;123359;-67
2021/03/26 02:30:30;;;;;;;45.05;27.73;;;;;;;10.50;58.36;101780.50;4891063;28;122969;-65
2021/03/26 02:32:57;;;;;;;42.85;27.15;;;;;;;10.50;58.42;101785.81;4893625;28;115750;-65
2021/03/26 02:35:36;;;;;;;47.22;28.60;;;;;;;10.47;58.77;101785.88;4910327;28;112600;-65
2021/03/26 02:38:27;;;;;;;44.25;27.98;;;;;;;10.46;58.65;101778.88;4908489;28;124783;-65
2021/03/26 02:41:22;;;;;;;45.65;28.55;;;;;;;10.43;58.89;101773.66;4907977;28;124074;-65
2021/03/26 02:44:01;;;;;;;43.25;27.48;;;;;;;10.42;58.83;101774.59;4910873;28;113423;-66
2021/03/26 02:46:50;;;;;;;43.22;28.20;;;;;;;10.41;58.72;101775.47;4912171;28;114742;-66
2021/03/26 02:49:43;;;;;;;45.75;28.77;;;;;;;10.41;59.15;101781.63;4912044;28;124519;-65
2021/03/26 02:52:49;;;;;;;48.58;29.05;;;;;;;10.41;58.78;101775.47;4905676;28;123763;-65
2021/03/26 02:55:42;;;;;;;47.67;28.23;;;;;;;10.41;58.80;101780.78;4890141;28;115741;-65
2021/03/26 02:58:17;;;;;;;48.47;28.67;;;;;;;10.41;58.75;101770.19;4905672;28;115297;-66
2021/03/26 03:00:53;;;;;;;42.80;28.05;;;;;;;10.40;58.93;101768.47;4897312;28;122365;-66
2021/03/26 03:03:27;;;;;;;44.95;28.23;;;;;;;10.38;58.66;101764.97;4901576;28;122160;-66
2021/03/26 03:06:04;;;;;;;44.63;28.08;;;;;;;10.34;58.81;101764.22;4904601;28;114455;-66
2021/03/26 03:08:51;;;;;;;;;;;;;;;10.29;58.16;101756.34;4905383;28;114025;-65
2021/03/26 03:11:56;;;;;;;43.03;26.75;;;;;;;10.27;58.51;101763.47;4906654;28;124598;-65
2021/03/26 03:14:26;;;;;;;41.17;26.55;;;;;;;10.22;58.31;101765.38;4893323;28;124187;-66
2021/03/26 03:17:02;;;;;;;45.83;27.50;;;;;;;10.20;58.78;101772.50;4905116;28;113889;-65
2021/03/26 03:19:53;;;;;;;41.45;27.02;;;;;;;10.16;58.47;101776.16;4908246;28;114017;-66
2021/03/26 03:22:45;;;;;;;41.85;27.67;;;;;;;10.16;58.54;101765.56;4921103;28;123348;-66
2021/03/26 03:25:16;;;;;;;45.95;28.25;;;;;;;10.15;58.79;101758.53;4905234;28;123010;-65
2021/03/26 03:28:10;;;;;;;46.60;27.63;;;;;;;10.13;58.70;101757.69;4909292;28;113549;-65
2021/03/26 03:30:45;;;;;;;43.97;26.83;;;;;;;10.09;58.82;101753.41;4907836;28;114525;-65
2021/03/26 03:33:19;;;;;;;45.50;27.35;;;;;;;10.05;58.85;101755.28;4909900;28;123397;-65
2021/03/26 03:35:57;;;;;;;47.92;29.40;;;;;;;10.03;58.74;101754.44;4889266;28;124392;-65
2021/03/26 03:38:42;;;;;;;46.75;27.70;;;;;;;10.01;58.92;101744.84;4904059;28;114730;-65
2021/03/26 03:41:20;;;;;;;45.25;27.55;;;;;;;9.99;58.84;101744.00;4908086;28;114065;-65
2021/03/26 03:43:57;;;;;;;45.80;27.40;;;;;;;9.98;58.95;101751.06;4893118;28;123179;-65
2021/03/26 03:46:24;;;;;;;42.38;27.25;;;;;;;9.96;59.11;101752.03;4906382;28;124151;-66
2021/03/26 03:49:54;;;;;;;48.20;27.17;;;;;;;9.90;59.12;101748.63;4897577;28;114585;-65
2021/03/26 03:52:39;;;;;;;47.15;26.90;;;;;;;9.88;59.27;101750.44;4900555;28;114242;-65
2021/03/26 03:55:14;;;;;;;44.10;27.42;;;;;;;9.88;59.10;101746.94;4912297;28;123817;-65
2021/03/26 03:57:53;;;;;;;47.70;29.05;;;;;;;9.88;59.15;101745.16;4903607;28;123911;-65
2021/03/26 04:00:33;;;;;;;48.28;28.63;;;;;;;9.89;59.47;101746.91;4908772;28;113573;-65
2021/03/26 04:03:15;;;;;;;46.30;28.08;;;;;;;9.90;59.35;101738.03;4907815;28;113281;-65
2021/03/26 04:05:53;;;;;;;47.65;29.33;;;;;;;9.93;59.30;101742.41;4902426;28;123366;-65
2021/03/26 04:08:43;;;;;;;50.60;29.08;;;;;;;9.94;59.35;101739.72;4919143;28;123338;-65
2021/03/26 04:11:44;;;;;;;48.15;28.25;;;;;;;9.97;59.30;101737.91;4891792;28;113465;-65
2021/03/26 04:14:46;;;;;;;49.75;29.35;;;;;;;10.00;59.59;101737.78;4906972;28;114594;-65
2021/03/26 04:17:20;;;;;;;47.70;28.30;;;;;;;10.01;59.62;101739.53;4909143;28;123879;-65
2021/03/26 04:19:54;;;;;;;47.83;28.23;;;;;;;10.02;59.32;101731.56;4901133;28;124097;-66
2021/03/26 04:22:27;;;;;;;49.17;28.88;;;;;;;10.05;59.35;101730.59;4893478;28;114093;-65
2021/03/26 04:25:24;;;;;;;46.83;28.98;;;;;;;10.09;59.51;101737.53;4903108;28;113620;-65
2021/03/26 04:28:22;;;;;;;48.97;29.02;;;;;;;10.12;59.62;101737.44;4892147;28;125234;-65
2021/03/26 04:31:27;;;;;;;48.20;28.63;;;;;;;10.13;59.72;101734.78;4909501;28;124347;-65
2021/03/26 04:34:08;;;;;;;;;;;;;;;10.14;59.27;101727.69;4910118;28;112679;-65
2021/03/26 04:37:01;;;;;;;46.55;27.80;;;;;;;10.14;59.10;101728.53;4906522;28;113394;-65
2021/03/26 04:40:05;;;;;;;47.70;28.70;;;;;;;10.14;59.26;101720.59;4904953;28;123472;-65
2021/03/26 04:42:47;;;;;;;54.47;30.20;;;;;;;10.15;59.40;101718.81;4905421;28;123416;-65
2021/03/26 04:45:27;;;;;;;49.45;29.13;;;;;;;10.15;59.51;101716.16;4905272;28;114372;-65
2021/03/26 04:48:19;;;;;;;52.50;29.97;;;;;;;10.18;59.38;101715.22;4906902;28;114443;-65
2021/03/26 04:51:11;;;;;;;54.03;30.65;;;;;;;10.20;59.72;101708.97;4906856;28;122495;-66
2021/03/26 04:54:18;;;;;;;51.85;29.65;;;;;;;10.22;59.93;101712.44;4907240;28;124858;-65
2021/03/26 04:56:58;;;;;;;52.30;30.05;;;;;;;10.26;59.82;101714.06;4900059;28;113860;-66
2021/03/26 04:59:33;;;;;;;52.65;30.88;;;;;;;10.28;59.82;101706.97;4905164;28;114345;-65
2021/03/26 05:02:14;;;;;;;54.20;30.92;;;;;;;10.32;59.91;101708.66;4905736;28;124213;-65
2021/03/26 05:04:45;;;;;;;57.15;32.00;;;;;;;10.38;60.16;101701.41;4909583;28;122872;-65
2021/03/26 05:07:33;;;;;;;53.88;30.60;;;;;;;10.43;60.22;101704.78;4925035;28;113235;-65
2021/03/26 05:10:07;;;;;;;50.65;31.27;;;;;;;10.48;59.93;101702.88;4904489;28;114742;-65
2021/03/26 05:12:55;;;;;;;52.78;31.30;;;;;;;10.51;59.90;101703.66;4911816;28;124458;-66
2021/03/26 05:16:14;;;;;;;55.10;32.55;;;;;;;10.56;59.79;101700.84;4909164;28;123347;-66
2021/03/26 05:19:06;;;;;;;54.25;31.17;;;;;;;10.61;60.24;101696.28;4912147;28;114625;-65
2021/03/26 05:21:40;;;;;;;52.38;31.77;;;;;;;10.64;60.01;101693.56;4907594;28;114375;-65
2021/03/26 05:24:44;;;;;;;50.42;32.45;;;;;;;10.67;60.10;101696.09;4911774;28;124221;-65
2021/03/26 05:27:49;;;;;;;61.78;31.50;;;;;;;10.71;59.71;101705.66;4909100;28;123825;-65
2021/03/26 05:30:22;;;;;;;55.45;32.25;;;;;;;10.74;59.96;101693.22;4911415;28;114136;-65
2021/03/26 05:33:20;;;;;;;53.60;31.90;;;;;;;10.78;59.81;101695.75;4913519;28;113995;-65
2021/03/26 05:35:58;;;;;;;53.45;32.53;;;;;;;10.82;59.72;101696.53;4912863;28;123854;-66
2021/03/26 05:38:53;;;;;;;52.70;31.98;;;;;;;10.86;59.71;101700.81;4907268;28;124233;-65
2021/03/26 05:41:49;;;;;;;55.15;31.60;;;;;;;10.88;59.80;101698.97;4907785;28;116104;-65
2021/03/26 05:44:43;;;;;;;56.03;32.85;;;;;;;10.91;59.38;101690.91;4909396;28;115847;-65
2021/03/26 05:47:40;;;;;;;54.72;32.03;;;;;;;10.92;59.46;101692.63;4911175;28;123700;-65
2021/03/26 05:50:36;;;;;;;51.17;30.88;;;;;;;10.93;59.39;101689.09;4911856;28;124139;-66
2021/03/26 05:53:19;;;;;;;52.55;31.27;;;;;;;10.95;59.74;101692.56;4894452;28;113436;-66
2021/03/26 05:56:41;;;;;;;56.25;32.30;;;;;;;10.98;59.57;101692.47;4880178;28;115031;-66
2021/03/26 05:59:12;;;;;;;52.88;31.92;;;;;;;11.00;59.51;101690.63;4892004;28;124051;-66
2021/03/26 06:02:09;;;;;;;57.08;32.53;;;;;;;11.02;59.44;101688.78;4895136;28;121487;-66
2021/03/26 06:05:20;;;;;;;51.75;31.58;;;;;;;11.05;59.26;101691.31;4878632;28;114986;-66
2021/03/26 06:08:45;;;;;;;54.10;31.80;;;;;;;11.07;59.59;101692.13;4907679;28;113842;-66
2021/03/26 06:12:20;;;;;;;50.17;31.08;;;;;;;11.09;59.35;101685.00;4907543;28;124868;-66
2021/03/26 06:15:24;;;;;;;57.67;32.47;;;;;;;11.12;59.30;101680.53;4909290;28;124828;-66
2021/03/26 06:18:10;;;;;;;52.22;31.13;;;;;;;11.15;59.29;101672.44;4912171;28;115071;-66
2021/03/26 06:21:23;;;;;;;50.97;30.75;;;;;;;11.18;59.33;101677.66;4912014;28;114887;-66
2021/03/26 06:24:42;;;;;;;51.30;30.90;;;;;;;11.21;59.26;101678.41;4902640;28;124834;-66
2021/03/26 06:27:45;;;;;;;50.65;30.73;;;;;;;11.27;59.36;101683.50;4907283;28;126048;-66
2021/03/26 06:30:56;;;;;;;49.47;30.30;;;;;;;11.32;59.25;101674.53;4906309;28;113598;-66
2021/03/26 06:34:04;;;;;;;56.50;32.10;;;;;;;11.40;59.27;101673.34;4890958;28;114112;-66
2021/03/26 06:37:28;;;;;;;52.08;30.38;;;;;;;11.43;59.23;101678.56;4892666;28;123696;-66
2021/03/26 06:40:16;;;;;;;46.78;29.83;;;;;;;11.48;59.38;101668.63;4853519;28;123595;-66
2021/03/26 06:43:07;;;;;;;48.13;29.60;;;;;;;11.52;58.95;101671.19;4851463;28;114686;-66
2021/03/26 06:46:03;;;;;;;49.05;30.60;;;;;;;11.56;59.14;101664.84;4894241;28;115228;-66
2021/03/26 06:48:43;;;;;;;49.17;30.08;;;;;;;11.60;58.90;101667.34;4903357;28;124837;-66
2021/03/26 06:51:42;;;;;;;48.60;30.88;;;;;;;11.64;59.03;101671.59;4907117;28;124569;-66
2021/03/26 06:54:23;;;;;;;50.30;30.58;;;;;;;11.67;59.10;101668.81;4908999;28;114549;-66
2021/03/26 06:57:08;;;;;;;48.35;29.88;;;;;;;11.73;58.96;101665.06;4906605;28;113887;-66
2021/03/26 07:00:12;;;;;;;53.60;30.63;;;;;;;11.76;58.93;101664.97;4907245;28;123228;-66
2021/03/26 07:02:44;;;;;;;51.47;30.55;;;;;;;11.81;58.70;101668.34;4909133;28;124424;-66
2021/03/26 07:05:53;;;;;;;44.70;29.55;;;;;;;11.86;58.94;101666.34;4906774;28;114507;-66
2021/03/26 07:08:22;;;;;;;51.63;30.25;;;;;;;11.95;58.76;101664.34;4904002;28;114704;-66
2021/03/26 07:10:54;;;;;;;48.05;30.48;;;;;;;11.99;58.66;101664.16;4906373;28;124721;-66
2021/03/26 07:13:21;;;;;;;49.08;30.08;;;;;;;12.05;58.64;101665.69;4904715;28;122575;-66
2021/03/26 07:16:02;;;;;;;45.10;29.67;;;;;;;12.10;58.49;101669.06;4909299;28;114945;-66
2021/03/26 07:19:16;;;;;;;49.17;31.45;;;;;;;12.17;58.58;101672.34;4907095;28;114508;-66
2021/03/26 07:22:13;;;;;;;47.63;30.15;;;;;;;12.22;58.31;101668.59;4840518;28;124031;-65
2021/03/26 07:25:01;;;;;;;47.28;29.73;;;;;;;12.29;58.39;101673.66;4903070;28;124620;-65
2021/03/26 07:27:50;;;;;;;43.90;29.73;;;;;;;12.32;58.19;101674.41;4903748;28;114607;-66
2021/03/26 07:30:28;;;;;;;48.65;30.20;;;;;;;12.39;58.19;101669.72;4904806;28;112526;-66
2021/03/26 07:33:13;;;;;;;47.70;30.15;;;;;;;12.45;57.98;101674.78;4908625;28;123761;-65
2021/03/26 07:35:44;;;;;;;;;;;;;;;12.53;58.20;101666.53;4910402;28;123629;-66
2021/03/26 07:38:27;;;;;;;47.50;28.77;;;;;;;12.66;58.22;101668.63;4908615;28;115297;-65
2021/03/26 07:41:09;;;;;;;43.75;29.25;;;;;;;12.77;58.08;101670.84;4901062;28;115187;-66
2021/03/26 07:44:21;;;;;;;41.28;28.10;;;;;;;12.91;58.14;101661.44;4908899;28;124448;-66
2021/03/26 07:47:03;;;;;;;43.53;27.38;;;;;;;13.09;57.88;101659.78;4904837;28;124725;-66
2021/03/26 07:49:59;;;;;;;41.17;27.02;;;;;;;13.21;57.92;101664.59;4907871;28;114231;-66
2021/03/26 07:52:56;;;;;;;38.70;26.33;;;;;;;13.35;57.44;101661.34;4895766;28;113809;-65
2021/03/26 07:55:36;;;;;;;40.78;26.27;;;;;;;13.48;57.00;101657.22;4892949;28;124141;-66
2021/03/26 07:58:30;;;;;;;38.00;25.50;;;;;;;13.62;57.09;101656.63;4893776;28;123972;-66
2021/03/26 08:01:14;;;;;;;37.15;24.45;;;;;;;13.76;56.50;101662.16;4890187;28;114781;-66
2021/03/26 08:04:04;;;;;;;35.22;24.80;;;;;;;13.90;56.32;101652.69;4896785;28;114742;-66
2021/03/26 08:06:52;;;;;;;41.08;24.30;;;;;;;14.04;56.22;101655.59;4888151;28;124838;-66
2021/03/26 08:10:00;;;;;;;35.75;23.75;;;;;;;14.18;55.96;101654.94;4886310;28;124833;-66
2021/03/26 08:12:40;;;;;;;34.25;23.58;;;;;;;14.31;55.60;101653.41;4893736;28;115248;-65
2021/03/26 08:15:27;;;;;;;36.45;22.50;;;;;;;14.42;55.47;101650.25;4890389;28;114370;-66
2021/03/26 08:18:08;;;;;;;34.05;23.10;;;;;;;14.55;55.37;101651.38;4894941;28;123713;-66
2021/03/26 08:21:09;;;;;;;30.17;21.13;;;;;;;14.68;54.98;101653.47;4891882;28;124613;-66
2021/03/26 08:23:43;;;;;;;32.58;21.98;;;;;;;14.79;54.48;101657.34;4890355;28;114805;-66
2021/03/26 08:26:28;;;;;;;31.87;22.33;;;;;;;14.91;54.53;101658.50;4894956;28;113980;-67
2021/03/26 08:29:17;;;;;;;33.25;22.15;;;;;;;15.05;54.29;101654.28;4889708;28;124612;-67
2021/03/26 08:31:59;;;;;;;29.75;21.17;;;;;;;15.17;53.54;101659.00;4893321;28;123894;-67
2021/03/26 08:34:48;;;;;;;33.88;20.38;;;;;;;15.24;53.33;101657.75;4890506;28;115523;-67
2021/03/26 08:38:09;;;;;;;33.03;21.88;;;;;;;15.30;53.42;101652.09;4904885;28;114051;-67
2021/03/26 08:40:49;;;;;;;28.25;20.40;;;;;;;15.40;53.00;101659.63;4883610;28;123969;-67
2021/03/26 08:43:19;;;;;;;30.98;20.60;;;;;;;15.46;52.65;101653.97;4914880;28;123220;-65
2021/03/26 08:45:55;;;;;;;31.58;20.58;;;;;;;15.51;52.54;101657.25;4900100;28;115536;-65
2021/03/26 08:48:39;;;;;;;32.72;20.63;;;;;;;15.58;52.38;101654.19;4893630;28;113755;-66
2021/03/26 08:51:39;;;;;;;29.50;19.65;;;;;;;15.67;52.02;101652.84;4892200;28;124638;-65
2021/03/26 08:54:43;;;;;;;28.73;18.67;;;;;;;15.73;51.88;101660.53;4894719;28;123484;-66
2021/03/26 08:57:22;;;;;;;28.33;19.30;;;;;;;15.79;51.44;101656.69;4901138;28;115273;-66
2021/03/26 09:00:29;;;;;;;29.25;19.02;;;;;;;15.83;51.60;101652.03;4896828;28;114571;-66
2021/03/26 09:03:13;;;;;;;28.02;19.50;;;;;;;15.89;51.39;101651.69;4872441;28;124173;-66
2021/03/26 09:06:03;;;;;;;27.27;18.73;;;;;;;15.95;51.19;101646.00;4891310;28;124499;-67
2021/03/26 09:08:39;;;;;;;26.63;17.52;;;;;;;16.03;50.83;101643.78;4892511;28;113478;-67
2021/03/26 09:11:21;;;;;;;25.05;17.63;;;;;;;16.11;51.07;101646.91;4890986;28;114119;-65
2021/03/26 09:14:17;;;;;;;22.85;15.93;;;;;;;16.21;50.63;101649.06;4891014;28;124024;-67
2021/03/26 09:17:02;;;;;;;26.17;16.20;;;;;;;16.32;50.58;101643.97;4901670;28;123095;-66
2021/03/26 09:19:38;;;;;;;26.50;16.67;;;;;;;16.43;50.18;101641.56;4893418;28;114409;-65
2021/03/26 09:22:35;;;;;;;23.95;16.02;;;;;;;16.53;50.21;101642.75;4905846;28;114269;-66
2021/03/26 09:25:23;;;;;;;21.38;14.38;;;;;;;16.63;49.57;101637.75;4894127;28;124119;-66
2021/03/26 09:27:54;;;;;;;20.63;14.10;;;;;;;16.70;49.59;101624.88;4890365;28;124106;-66
2021/03/26 09:30:54;;;;;;;21.58;14.35;;;;;;;16.76;49.21;101627.16;4887718;28;115534;-66
2021/03/26 09:33:21;;;;;;;21.45;12.48;;;;;;;16.85;49.03;101632.03;4880621;28;114442;-66
2021/03/26 09:35:54;;;;;;;19.92;11.85;;;;;;;16.92;48.71;101617.34;4886589;28;123732;-66
2021/03/26 09:38:33;;;;;;;18.60;11.63;;;;;;;17.03;48.54;101618.53;4890714;28;123686;-66
2021/03/26 09:41:12;;;;;;;17.25;11.07;;;;;;;17.15;48.60;101623.13;4892213;28;114749;-67
2021/03/26 09:43:52;;;;;;;15.95;10.65;;;;;;;17.22;48.16;101613.78;4891704;28;114422;-67
2021/03/26 09:46:40;;;;;;;17.35;10.52;;;;;;;17.30;48.11;101621.34;4892917;28;124308;-67
2021/03/26 09:49:17;;;;;;;17.80;9.93;;;;;;;17.39;47.51;101625.28;4888514;28;124583;-67
2021/03/26 09:51:55;;;;;;;18.30;10.60;;;;;;;17.43;47.33;101624.13;4879661;28;113248;-67
2021/03/26 09:54:38;;;;;;;16.77;9.80;;;;;;;17.47;47.21;101622.97;4895485;28;114563;-67
2021/03/26 09:57:44;;;;;;;14.23;8.90;;;;;;;17.51;47.29;101619.16;4894963;28;123133;-67
2021/03/26 10:00:29;;;;;;;13.18;8.20;;;;;;;17.54;46.69;101618.97;4898575;28;123332;-67
2021/03/26 10:03:08;;;;;;;14.07;7.57;;;;;;;17.56;46.45;101617.06;4895283;28;114089;-66
2021/03/26 10:05:49;;;;;;;11.73;6.85;;;;;;;17.57;46.17;101613.41;4914646;28;114130;-67
2021/03/26 10:09:21;;;;;;;11.18;6.40;;;;;;;17.58;45.81;101615.13;4901661;28;124285;-67
2021/03/26 10:11:24;;;;;;;13.57;6.70;;;;;;;17.57;45.61;101618.75;4906658;28;124209;-67
2021/03/26 10:14:00;;;;;;;11.27;6.18;;;;;;;17.60;45.80;101618.59;4906457;28;114157;-67
2021/03/26 10:17:05;;;;;;;13.18;6.63;;;;;;;17.63;45.72;101607.69;4910001;28;113534;-67
2021/03/26 10:19:39;;;;;;;13.03;7.10;;;;;;;17.62;45.23;101605.94;4905423;28;124043;-67
2021/03/26 10:22:35;;;;;;;13.30;6.43;;;;;;;17.62;45.64;101605.94;4909766;28;124639;-67
2021/03/26 10:25:05;;;;;;;16.83;6.78;;;;;;;17.64;45.40;101596.00;4898404;28;114579;-67
2021/03/26 10:27:39;;;;;;;12.38;7.07;;;;;;;17.66;45.46;101591.41;4911862;28;114777;-68
2021/03/26 10:30:46;;;;;;;9.48;5.53;;;;;;;17.67;45.27;101582.41;4910597;28;122999;-67
2021/03/26 10:33:16;;;;;;;10.60;6.10;;;;;;;17.73;44.73;101585.69;4909036;28;124192;-66
2021/03/26 10:36:04;;;;;;;10.05;4.75;;;;;;;17.70;44.58;101586.72;4911172;28;113848;-66
2021/03/26 10:38:53;;;;;;;9.02;4.55;;;;;;;17.67;44.33;101590.47;4911578;28;113816;-66
2021/03/26 10:41:46;;;;;;;13.30;4.80;;;;;;;17.60;43.99;101586.44;4906507;28;124279;-67
2021/03/26 10:44:47;;;;;;;10.43;5.20;;;;;;;17.57;44.24;101575.91;4903789;28;124181;-67
2021/03/26 10:47:48;;;;;;;10.93;5.10;;;;;;;17.57;44.59;101570.53;4904009;28;114923;-67
2021/03/26 10:50:27;;;;;;;12.98;4.50;;;;;;;17.59;43.66;101573.97;4891598;28;113109;-67
2021/03/26 10:53:05;;;;;;;7.05;3.88;;;;;;;17.58;43.50;101561.56;4898233;28;123910;-67
2021/03/26 10:55:42;;;;;;;8.30;4.20;;;;;;;17.60;43.16;101562.31;4904379;28;124107;-68
2021/03/26 10:58:26;;;;;;;10.27;4.25;;;;;;;17.60;43.33;101554.28;4879900;28;114049;-68
2021/03/26 11:00:59;;;;;;;10.63;4.27;;;;;;;17.60;43.03;101548.94;4889691;28;113350;-67
2021/03/26 11:03:32;;;;;;;6.85;3.25;;;;;;;17.63;42.43;101548.75;4891828;28;124429;-67
2021/03/26 11:06:00;;;;;;;5.97;3.20;;;;;;;17.63;42.17;101548.75;4899520;28;122875;-67
2021/03/26 11:08:33;;;;;;;10.30;3.00;;;;;;;17.63;41.97;101546.06;4892535;28;114747;-67
2021/03/26 11:11:09;;;;;;;7.45;2.85;;;;;;;17.67;41.99;101536.88;4892830;28;114716;-67
2021/03/26 11:14:04;;;;;;;8.43;2.90;;;;;;;17.69;41.90;101537.63;4894972;28;124282;-67
2021/03/26 11:16:41;;;;;;;9.97;3.00;;;;;;;17.75;41.97;101535.53;4894902;28;123715;-68
2021/03/26 11:19:12;;;;;;;10.00;3.13;;;;;;;17.79;41.42;101531.69;4897002;28;115925;-67
2021/03/26 11:21:46;;;;;;;5.70;3.10;;;;;;;17.81;41.40;101519.03;4902739;28;115273;-67
2021/03/26 11:24:15;;;;;;;8.65;3.25;;;;;;;17.82;41.57;101520.75;4900700;28;124963;-67
2021/03/26 11:26:50;;;;;;;10.00;3.33;;;;;;;17.82;41.35;101520.75;4909281;28;123841;-68
2021/03/26 11:29:32;;;;;;;7.57;3.13;;;;;;;17.83;41.33;101527.84;4898049;28;113767;-69
2021/03/26 11:32:01;;;;;;;10.02;2.88;;;;;;;17.83;41.04;101519.81;4889596;28;114165;-68
2021/03/26 11:35:00;;;;;;;10.23;3.35;;;;;;;17.84;41.42;101513.50;4893145;28;122924;-67
2021/03/26 11:37:39;;;;;;;9.07;3.05;;;;;;;17.95;41.44;101511.00;4893026;28;124166;-68
2021/03/26 11:40:27;;;;;;;9.35;3.45;;;;;;;18.04;41.16;101505.03;4894645;28;114392;-67
2021/03/26 11:43:09;;;;;;;7.45;3.13;;;;;;;18.06;40.85;101508.50;4897944;28;114159;-67
2021/03/26 11:45:44;;;;;;;6.90;3.20;;;;;;;18.08;40.99;101501.19;4903690;28;123679;-67
2021/03/26 11:48:14;;;;;;;;;;;;;;;18.13;42.04;101502.72;4901451;28;124394;-66
2021/03/26 11:51:04;;;;;;;9.25;3.72;;;;;;;18.15;41.17;101500.78;4900092;28;114781;-66
2021/03/26 11:53:40;;;;;;;8.55;3.13;;;;;;;18.16;40.64;101497.13;4897168;28;114821;-66
2021/03/26 11:56:16;;;;;;;7.55;3.30;;;;;;;18.17;40.64;101488.13;4908068;28;124304;-66
2021/03/26 11:59:03;;;;;;;5.80;3.10;;;;;;;18.17;40.79;101488.97;4906014;28;123932;-66
2021/03/26 12:01:41;;;;;;;7.28;3.50;;;;;;;18.22;40.77;101470.78;4909978;28;114343;-66
2021/03/26 12:04:21;;;;;;;9.23;3.78;;;;;;;18.33;40.61;101471.84;4900082;28;113932;-66
2021/03/26 12:06:58;;;;;;;9.75;3.63;;;;;;;18.42;40.49;101466.75;4906497;28;124543;-67
2021/03/26 12:09:35;;;;;;;9.40;3.50;;;;;;;18.48;40.03;101460.97;4904584;28;123922;-66
2021/03/26 12:12:17;;;;;;;7.22;3.30;;;;;;;18.54;39.95;101453.47;4902212;28;115861;-67
2021/03/26 12:14:54;;;;;;;5.95;2.90;;;;;;;18.61;39.53;101454.72;4892318;28;114578;-67
2021/03/26 12:17:21;;;;;;;7.20;3.42;;;;;;;18.65;39.16;101449.06;4901653;28;124568;-66